sensor_id;sensor_type;location;lat;lon;timestamp;P1;durP1;ratioP1;P2;durP2;ratioP2
48574;SDS011;34352;51.084;3.712;2023-05-10T10:03:31;27.55;;;17.10;;
48574;SDS011;34352;51.084;3.712;2023-05-10T10:06:11;25.70;;;16.60;;
48574;SDS011;34352;51.084;3.712;2023-05-10T10:08:44;25.85;;;15.80;;
48574;SDS011;34352;51.084;3.712;2023-05-10T10:11:12;21.65;;;15.25;;
48574;SDS011;34352;51.084;3.712;2023-05-10T10:13:44;23.10;;;14.48;;
48574;SDS011;34352;51.084;3.712;2023-05-10T10:18:44;22.13;;;14.13;;
48574;SDS011;34352;51.084;3.712;2023-05-10T10:21:16;24.70;;;14.23;;
48574;SDS011;34352;51.084;3.712;2023-05-10T10:23:44;23.08;;;13.80;;
48574;SDS011;34352;51.084;3.712;2023-05-10T10:32:38;20.48;;;13.98;;
48574;SDS011;34352;51.084;3.712;2023-05-10T10:38:59;23.13;;;14.00;;
48574;SDS011;34352;51.084;3.712;2023-05-10T10:41:36;23.08;;;14.77;;
48574;SDS011;34352;51.084;3.712;2023-05-10T10:44:32;26.30;;;15.13;;
48574;SDS011;34352;51.084;3.712;2023-05-10T10:50:04;25.52;;;15.48;;
48574;SDS011;34352;51.084;3.712;2023-05-10T10:52:35;29.42;;;15.57;;
48574;SDS011;34352;51.084;3.712;2023-05-10T10:55:19;26.35;;;15.48;;
48574;SDS011;34352;51.084;3.712;2023-05-10T12:00:54;38.00;;;22.67;;
48574;SDS011;34352;51.084;3.712;2023-05-10T12:09:23;36.10;;;22.27;;
48574;SDS011;34352;51.084;3.712;2023-05-10T12:12:06;33.05;;;22.48;;
48574;SDS011;34352;51.084;3.712;2023-05-10T12:17:27;32.15;;;21.83;;
48574;SDS011;34352;51.084;3.712;2023-05-10T12:28:43;32.78;;;20.98;;
48574;SDS011;34352;51.084;3.712;2023-05-10T13:50:07;39.63;;;23.60;;
48574;SDS011;34352;51.084;3.712;2023-05-10T13:52:36;38.72;;;23.13;;
48574;SDS011;34352;51.084;3.712;2023-05-10T14:04:36;32.50;;;18.70;;
48574;SDS011;34352;51.084;3.712;2023-05-10T14:07:03;29.52;;;19.63;;
48574;SDS011;34352;51.084;3.712;2023-05-10T14:09:33;34.47;;;20.48;;
48574;SDS011;34352;51.084;3.712;2023-05-10T14:33:40;39.30;;;21.60;;
48574;SDS011;34352;51.084;3.712;2023-05-10T14:36:24;36.20;;;22.17;;
48574;SDS011;34352;51.084;3.712;2023-05-10T14:44:10;33.58;;;16.08;;
48574;SDS011;34352;51.084;3.712;2023-05-10T14:46:38;26.35;;;16.25;;
48574;SDS011;34352;51.084;3.712;2023-05-10T14:55:17;36.33;;;18.15;;
48574;SDS011;34352;51.084;3.712;2023-05-10T14:57:44;30.23;;;13.93;;
48574;SDS011;34352;51.084;3.712;2023-05-10T15:00:12;33.78;;;14.65;;
48574;SDS011;34352;51.084;3.712;2023-05-10T15:02:41;26.83;;;13.40;;
48574;SDS011;34352;51.084;3.712;2023-05-10T15:05:07;31.73;;;14.35;;
48574;SDS011;34352;51.084;3.712;2023-05-10T15:07:41;27.90;;;11.75;;
48574;SDS011;34352;51.084;3.712;2023-05-10T15:10:10;19.00;;;8.93;;
48574;SDS011;34352;51.084;3.712;2023-05-10T15:12:43;25.33;;;11.13;;
48574;SDS011;34352;51.084;3.712;2023-05-10T15:28:50;21.15;;;8.57;;
48574;SDS011;34352;51.084;3.712;2023-05-10T15:38:25;16.63;;;5.88;;
48574;SDS011;34352;51.084;3.712;2023-05-10T15:40:56;16.63;;;8.60;;
48574;SDS011;34352;51.084;3.712;2023-05-10T15:43:24;20.15;;;8.43;;
48574;SDS011;34352;51.084;3.712;2023-05-10T15:45:54;25.13;;;9.80;;
48574;SDS011;34352;51.084;3.712;2023-05-10T15:48:24;15.82;;;6.65;;
48574;SDS011;34352;51.084;3.712;2023-05-10T15:50:56;22.85;;;6.65;;
48574;SDS011;34352;51.084;3.712;2023-05-10T15:53:39;18.23;;;6.93;;
48574;SDS011;34352;51.084;3.712;2023-05-10T15:56:29;17.48;;;7.63;;
48574;SDS011;34352;51.084;3.712;2023-05-10T15:59:07;17.70;;;6.57;;
48574;SDS011;34352;51.084;3.712;2023-05-10T16:04:13;22.77;;;10.10;;
48574;SDS011;34352;51.084;3.712;2023-05-10T16:06:39;28.15;;;11.52;;
48574;SDS011;34352;51.084;3.712;2023-05-10T16:09:05;29.02;;;10.98;;
48574;SDS011;34352;51.084;3.712;2023-05-10T16:11:32;25.27;;;9.50;;
48574;SDS011;34352;51.084;3.712;2023-05-10T16:13:59;23.77;;;10.25;;
48574;SDS011;34352;51.084;3.712;2023-05-10T16:18:56;21.00;;;7.53;;
48574;SDS011;34352;51.084;3.712;2023-05-10T16:24:13;15.02;;;6.20;;
48574;SDS011;34352;51.084;3.712;2023-05-10T16:26:41;16.75;;;7.93;;
48574;SDS011;34352;51.084;3.712;2023-05-10T16:29:08;15.85;;;6.13;;
48574;SDS011;34352;51.084;3.712;2023-05-10T16:31:34;17.63;;;7.10;;
48574;SDS011;34352;51.084;3.712;2023-05-10T16:34:02;24.40;;;8.65;;
48574;SDS011;34352;51.084;3.712;2023-05-10T16:36:40;24.67;;;8.52;;
48574;SDS011;34352;51.084;3.712;2023-05-10T16:39:06;24.90;;;8.93;;
48574;SDS011;34352;51.084;3.712;2023-05-10T16:41:34;22.85;;;7.95;;
48574;SDS011;34352;51.084;3.712;2023-05-10T16:44:01;21.38;;;9.02;;
48574;SDS011;34352;51.084;3.712;2023-05-10T16:46:41;19.55;;;7.55;;
48574;SDS011;34352;51.084;3.712;2023-05-10T16:49:13;17.42;;;6.05;;
48574;SDS011;34352;51.084;3.712;2023-05-10T16:59:32;19.48;;;8.23;;
48574;SDS011;34352;51.084;3.712;2023-05-10T17:04:59;16.27;;;6.53;;
48574;SDS011;34352;51.084;3.712;2023-05-10T17:07:25;16.60;;;6.88;;
48574;SDS011;34352;51.084;3.712;2023-05-10T17:09:59;15.68;;;7.22;;
48574;SDS011;34352;51.084;3.712;2023-05-10T17:12:39;17.27;;;6.80;;
48574;SDS011;34352;51.084;3.712;2023-05-10T17:18:28;14.90;;;6.70;;
48574;SDS011;34352;51.084;3.712;2023-05-10T17:21:07;20.58;;;8.90;;
48574;SDS011;34352;51.084;3.712;2023-05-10T17:23:35;18.65;;;6.63;;
48574;SDS011;34352;51.084;3.712;2023-05-10T17:26:13;18.30;;;7.07;;
48574;SDS011;34352;51.084;3.712;2023-05-10T17:31:38;15.02;;;7.18;;
48574;SDS011;34352;51.084;3.712;2023-05-10T17:36:35;20.35;;;7.03;;
48574;SDS011;34352;51.084;3.712;2023-05-10T17:39:07;18.10;;;7.03;;
48574;SDS011;34352;51.084;3.712;2023-05-10T17:41:41;14.68;;;6.72;;
48574;SDS011;34352;51.084;3.712;2023-05-10T17:47:25;21.98;;;6.93;;
48574;SDS011;34352;51.084;3.712;2023-05-10T17:49:53;20.85;;;7.38;;
48574;SDS011;34352;51.084;3.712;2023-05-10T17:52:39;15.52;;;7.68;;
48574;SDS011;34352;51.084;3.712;2023-05-10T17:55:15;22.77;;;7.97;;
48574;SDS011;34352;51.084;3.712;2023-05-10T17:57:48;16.58;;;7.30;;
48574;SDS011;34352;51.084;3.712;2023-05-10T18:02:43;18.25;;;7.38;;
48574;SDS011;34352;51.084;3.712;2023-05-10T18:05:13;18.30;;;7.30;;
48574;SDS011;34352;51.084;3.712;2023-05-10T18:07:39;22.85;;;7.35;;
48574;SDS011;34352;51.084;3.712;2023-05-10T18:10:05;17.27;;;7.30;;
48574;SDS011;34352;51.084;3.712;2023-05-10T18:12:34;20.00;;;7.78;;
48574;SDS011;34352;51.084;3.712;2023-05-10T18:15:00;22.65;;;8.50;;
48574;SDS011;34352;51.084;3.712;2023-05-10T18:17:27;16.92;;;7.15;;
48574;SDS011;34352;51.084;3.712;2023-05-10T18:19:53;21.52;;;8.20;;
48574;SDS011;34352;51.084;3.712;2023-05-10T18:22:22;17.95;;;7.80;;
48574;SDS011;34352;51.084;3.712;2023-05-10T18:24:58;22.25;;;7.88;;
48574;SDS011;34352;51.084;3.712;2023-05-10T18:27:25;20.15;;;7.88;;
48574;SDS011;34352;51.084;3.712;2023-05-10T18:29:53;22.67;;;7.47;;
48574;SDS011;34352;51.084;3.712;2023-05-10T18:32:19;22.02;;;9.57;;
48574;SDS011;34352;51.084;3.712;2023-05-10T18:34:59;21.75;;;8.98;;
48574;SDS011;34352;51.084;3.712;2023-05-10T18:37:31;21.52;;;8.05;;
48574;SDS011;34352;51.084;3.712;2023-05-10T18:39:57;20.48;;;8.13;;
48574;SDS011;34352;51.084;3.712;2023-05-10T18:42:29;22.60;;;8.48;;
48574;SDS011;34352;51.084;3.712;2023-05-10T18:45:14;23.27;;;8.38;;
48574;SDS011;34352;51.084;3.712;2023-05-10T18:47:45;23.08;;;8.52;;
48574;SDS011;34352;51.084;3.712;2023-05-10T18:53:31;26.33;;;8.57;;
48574;SDS011;34352;51.084;3.712;2023-05-10T18:55:59;17.35;;;8.63;;
48574;SDS011;34352;51.084;3.712;2023-05-10T18:58:26;25.15;;;9.88;;
48574;SDS011;34352;51.084;3.712;2023-05-10T19:00:53;19.88;;;9.60;;
48574;SDS011;34352;51.084;3.712;2023-05-10T19:03:20;22.92;;;9.90;;
48574;SDS011;34352;51.084;3.712;2023-05-10T19:05:47;19.60;;;9.43;;
48574;SDS011;34352;51.084;3.712;2023-05-10T19:08:16;23.67;;;9.77;;
48574;SDS011;34352;51.084;3.712;2023-05-10T19:10:42;22.83;;;9.27;;
48574;SDS011;34352;51.084;3.712;2023-05-10T19:13:12;22.45;;;9.70;;
48574;SDS011;34352;51.084;3.712;2023-05-10T19:18:09;18.85;;;9.50;;
48574;SDS011;34352;51.084;3.712;2023-05-10T19:20:35;21.65;;;9.77;;
48574;SDS011;34352;51.084;3.712;2023-05-10T19:23:02;26.88;;;10.75;;
48574;SDS011;34352;51.084;3.712;2023-05-10T19:25:30;20.83;;;10.95;;
48574;SDS011;34352;51.084;3.712;2023-05-10T19:27:55;22.88;;;9.55;;
48574;SDS011;34352;51.084;3.712;2023-05-10T19:30:22;25.05;;;10.38;;
48574;SDS011;34352;51.084;3.712;2023-05-10T19:32:49;23.58;;;9.75;;
48574;SDS011;34352;51.084;3.712;2023-05-10T19:35:23;22.17;;;10.10;;
48574;SDS011;34352;51.084;3.712;2023-05-10T19:37:50;18.65;;;10.00;;
48574;SDS011;34352;51.084;3.712;2023-05-10T19:43:40;25.10;;;9.57;;
48574;SDS011;34352;51.084;3.712;2023-05-10T19:46:15;21.60;;;10.75;;
48574;SDS011;34352;51.084;3.712;2023-05-10T19:48:43;26.42;;;11.27;;
48574;SDS011;34352;51.084;3.712;2023-05-10T19:51:09;22.23;;;10.38;;
48574;SDS011;34352;51.084;3.712;2023-05-10T19:56:22;25.10;;;11.32;;
48574;SDS011;34352;51.084;3.712;2023-05-10T20:01:22;24.63;;;11.18;;
48574;SDS011;34352;51.084;3.712;2023-05-10T20:03:49;24.38;;;12.45;;
48574;SDS011;34352;51.084;3.712;2023-05-10T20:06:15;22.95;;;11.77;;
48574;SDS011;34352;51.084;3.712;2023-05-10T20:08:44;26.27;;;12.68;;
48574;SDS011;34352;51.084;3.712;2023-05-10T20:11:21;27.70;;;13.85;;
48574;SDS011;34352;51.084;3.712;2023-05-10T20:13:59;27.92;;;14.02;;
48574;SDS011;34352;51.084;3.712;2023-05-10T20:16:25;27.05;;;14.70;;
48574;SDS011;34352;51.084;3.712;2023-05-10T20:19:04;22.42;;;13.68;;
48574;SDS011;34352;51.084;3.712;2023-05-10T20:21:31;28.77;;;15.55;;
48574;SDS011;34352;51.084;3.712;2023-05-10T20:23:57;28.92;;;14.40;;
48574;SDS011;34352;51.084;3.712;2023-05-10T20:26:28;29.38;;;13.75;;
48574;SDS011;34352;51.084;3.712;2023-05-10T20:28:54;28.13;;;13.98;;
48574;SDS011;34352;51.084;3.712;2023-05-10T20:31:21;31.08;;;14.20;;
48574;SDS011;34352;51.084;3.712;2023-05-10T20:33:46;22.33;;;13.10;;
48574;SDS011;34352;51.084;3.712;2023-05-10T20:36:14;30.80;;;15.18;;
48574;SDS011;34352;51.084;3.712;2023-05-10T20:38:42;29.63;;;13.68;;
48574;SDS011;34352;51.084;3.712;2023-05-10T20:41:09;30.30;;;14.50;;
48574;SDS011;34352;51.084;3.712;2023-05-10T20:43:35;32.17;;;14.23;;
48574;SDS011;34352;51.084;3.712;2023-05-10T20:48:33;35.65;;;15.80;;
48574;SDS011;34352;51.084;3.712;2023-05-10T20:51:10;38.70;;;16.08;;
48574;SDS011;34352;51.084;3.712;2023-05-10T20:56:21;28.15;;;14.55;;
48574;SDS011;34352;51.084;3.712;2023-05-10T20:58:55;29.92;;;15.55;;
48574;SDS011;34352;51.084;3.712;2023-05-10T21:01:29;34.92;;;14.43;;
48574;SDS011;34352;51.084;3.712;2023-05-10T21:03:55;28.83;;;14.35;;
48574;SDS011;34352;51.084;3.712;2023-05-10T21:06:22;26.95;;;14.45;;
48574;SDS011;34352;51.084;3.712;2023-05-10T21:08:49;29.80;;;13.77;;
48574;SDS011;34352;51.084;3.712;2023-05-10T21:11:14;33.80;;;14.73;;
48574;SDS011;34352;51.084;3.712;2023-05-10T21:13:40;28.45;;;14.43;;
48574;SDS011;34352;51.084;3.712;2023-05-10T21:16:06;31.92;;;15.27;;
48574;SDS011;34352;51.084;3.712;2023-05-10T21:18:33;26.70;;;14.38;;
48574;SDS011;34352;51.084;3.712;2023-05-10T21:20:59;29.45;;;14.93;;
48574;SDS011;34352;51.084;3.712;2023-05-10T21:23:29;24.40;;;13.25;;
48574;SDS011;34352;51.084;3.712;2023-05-10T21:26:03;26.38;;;14.15;;
48574;SDS011;34352;51.084;3.712;2023-05-10T21:28:36;31.25;;;14.52;;
48574;SDS011;34352;51.084;3.712;2023-05-10T21:31:02;28.40;;;13.35;;
48574;SDS011;34352;51.084;3.712;2023-05-10T21:36:28;28.98;;;12.30;;
48574;SDS011;34352;51.084;3.712;2023-05-10T21:38:56;29.20;;;13.10;;
48574;SDS011;34352;51.084;3.712;2023-05-10T21:41:23;26.48;;;12.27;;
48574;SDS011;34352;51.084;3.712;2023-05-10T21:46:21;26.48;;;12.38;;
48574;SDS011;34352;51.084;3.712;2023-05-10T21:51:18;23.55;;;12.85;;
48574;SDS011;34352;51.084;3.712;2023-05-10T21:54:01;23.58;;;12.02;;
48574;SDS011;34352;51.084;3.712;2023-05-10T21:56:27;26.80;;;12.13;;
48574;SDS011;34352;51.084;3.712;2023-05-10T21:58:54;30.77;;;13.43;;
48574;SDS011;34352;51.084;3.712;2023-05-10T22:01:23;34.10;;;14.13;;
48574;SDS011;34352;51.084;3.712;2023-05-10T22:03:48;27.60;;;12.18;;
48574;SDS011;34352;51.084;3.712;2023-05-10T22:06:16;34.65;;;13.02;;
48574;SDS011;34352;51.084;3.712;2023-05-10T22:08:46;28.70;;;12.00;;
48574;SDS011;34352;51.084;3.712;2023-05-10T22:11:13;23.13;;;11.38;;
48574;SDS011;34352;51.084;3.712;2023-05-10T22:13:39;21.23;;;10.23;;
48574;SDS011;34352;51.084;3.712;2023-05-10T22:16:05;25.25;;;10.93;;
48574;SDS011;34352;51.084;3.712;2023-05-10T22:18:32;24.23;;;10.48;;
48574;SDS011;34352;51.084;3.712;2023-05-10T22:21:04;21.25;;;10.55;;
48574;SDS011;34352;51.084;3.712;2023-05-10T22:23:32;19.00;;;10.38;;
48574;SDS011;34352;51.084;3.712;2023-05-10T22:26:01;25.85;;;10.05;;
48574;SDS011;34352;51.084;3.712;2023-05-10T22:28:28;20.55;;;9.73;;
48574;SDS011;34352;51.084;3.712;2023-05-10T22:30:56;22.98;;;9.07;;
48574;SDS011;34352;51.084;3.712;2023-05-10T22:33:25;22.50;;;9.18;;
48574;SDS011;34352;51.084;3.712;2023-05-10T22:35:51;18.65;;;9.02;;
48574;SDS011;34352;51.084;3.712;2023-05-10T22:38:21;19.50;;;8.10;;
48574;SDS011;34352;51.084;3.712;2023-05-10T22:40:48;19.35;;;8.38;;
48574;SDS011;34352;51.084;3.712;2023-05-10T22:43:15;17.45;;;7.88;;
48574;SDS011;34352;51.084;3.712;2023-05-10T22:45:41;17.98;;;8.18;;
48574;SDS011;34352;51.084;3.712;2023-05-10T22:48:09;17.25;;;7.38;;
48574;SDS011;34352;51.084;3.712;2023-05-10T22:50:37;22.55;;;7.72;;
48574;SDS011;34352;51.084;3.712;2023-05-10T22:53:04;15.27;;;7.95;;
48574;SDS011;34352;51.084;3.712;2023-05-10T22:55:32;19.17;;;7.68;;
48574;SDS011;34352;51.084;3.712;2023-05-10T22:58:01;19.88;;;7.70;;
48574;SDS011;34352;51.084;3.712;2023-05-10T23:00:27;16.67;;;6.95;;
48574;SDS011;34352;51.084;3.712;2023-05-10T23:02:54;17.17;;;7.78;;
48574;SDS011;34352;51.084;3.712;2023-05-10T23:05:22;13.40;;;6.63;;
48574;SDS011;34352;51.084;3.712;2023-05-10T23:07:50;17.50;;;7.57;;
48574;SDS011;34352;51.084;3.712;2023-05-10T23:10:19;12.75;;;7.47;;
48574;SDS011;34352;51.084;3.712;2023-05-10T23:12:45;19.52;;;7.60;;
48574;SDS011;34352;51.084;3.712;2023-05-10T23:15:12;21.15;;;8.23;;
48574;SDS011;34352;51.084;3.712;2023-05-10T23:17:37;15.95;;;7.47;;
48574;SDS011;34352;51.084;3.712;2023-05-10T23:20:04;18.92;;;7.18;;
48574;SDS011;34352;51.084;3.712;2023-05-10T23:22:30;18.95;;;7.22;;
48574;SDS011;34352;51.084;3.712;2023-05-10T23:24:56;19.90;;;8.50;;
48574;SDS011;34352;51.084;3.712;2023-05-10T23:27:26;25.35;;;7.70;;
48574;SDS011;34352;51.084;3.712;2023-05-10T23:29:53;24.27;;;8.60;;
48574;SDS011;34352;51.084;3.712;2023-05-10T23:32:22;19.30;;;7.28;;
48574;SDS011;34352;51.084;3.712;2023-05-10T23:34:48;21.90;;;8.80;;
48574;SDS011;34352;51.084;3.712;2023-05-10T23:37:14;21.67;;;7.82;;
48574;SDS011;34352;51.084;3.712;2023-05-10T23:39:40;19.38;;;8.68;;
48574;SDS011;34352;51.084;3.712;2023-05-10T23:42:06;21.10;;;8.43;;
48574;SDS011;34352;51.084;3.712;2023-05-10T23:44:34;23.15;;;8.40;;
48574;SDS011;34352;51.084;3.712;2023-05-10T23:47:02;20.00;;;8.73;;
48574;SDS011;34352;51.084;3.712;2023-05-10T23:49:28;21.67;;;8.95;;
48574;SDS011;34352;51.084;3.712;2023-05-10T23:51:56;19.92;;;8.80;;
48574;SDS011;34352;51.084;3.712;2023-05-10T23:54:33;20.80;;;8.40;;
48574;SDS011;34352;51.084;3.712;2023-05-10T23:57:02;22.88;;;8.48;;
48574;SDS011;34352;51.084;3.712;2023-05-10T23:59:34;22.35;;;8.00;;
